Time;durP1;ratioP1;P1;durP2;ratioP2;P2;SDS_P1;SDS_P2;PMS_P1;PMS_P2;Temp;Humidity;BMP_temperature;BMP_pressure;BME280_temperature;BME280_humidity;BME280_pressure;Samples;Min_cycle;Max_cycle;Signal;HPM_P1;HPM_P2
2022/11/30 00:00:26;;;;;;;8.88;6.25;;;;;;;;;;5037502;28;20017;-79
2022/11/30 00:02:54;;;;;;;9.45;6.80;;;;;;;;;;5032224;28;20030;-80
2022/11/30 00:05:21;;;;;;;5.65;4.65;;;;;;;;;;5032692;28;20036;-79
2022/11/30 00:07:46;;;;;;;9.50;7.82;;;;;;;;;;5037284;28;20163;-78
2022/11/30 00:10:12;;;;;;;10.45;8.15;;;;;;;;;;5028072;28;20144;-81
2022/11/30 00:12:40;;;;;;;12.88;10.00;;;;;;;;;;5037382;28;20032;-80
2022/11/30 00:15:06;;;;;;;15.57;11.48;;;;;;;;;;5040400;28;20032;-80
2022/11/30 00:17:32;;;;;;;15.57;11.05;;;;;;;;;;5030535;28;20029;-79
2022/11/30 00:19:57;;;;;;;12.00;9.68;;;;;;;;;;5030407;28;20033;-80
2022/11/30 00:22:22;;;;;;;7.68;6.65;;;;;;;;;;5037599;28;20024;-81
2022/11/30 00:24:48;;;;;;;3.85;3.17;;;;;;;;;;5038875;28;20043;-80
2022/11/30 00:27:13;;;;;;;3.10;2.80;;;;;;;;;;5039294;28;20021;-80
2022/11/30 00:29:38;;;;;;;3.35;3.05;;;;;;;;;;5028896;28;20025;-81
2022/11/30 00:32:04;;;;;;;5.57;4.63;;;;;;;;;;5034626;28;20028;-80
2022/11/30 00:34:29;;;;;;;5.32;4.03;;;;;;;;;;5028499;28;20028;-81
2022/11/30 00:36:54;;;;;;;6.88;5.60;;;;;;;;;;5030934;28;20026;-80
2022/11/30 00:39:20;;;;;;;7.05;5.68;;;;;;;;;;5025625;28;20075;-81
2022/11/30 00:41:45;;;;;;;7.32;5.82;;;;;;;;;;5039513;28;20040;-80
2022/11/30 00:44:11;;;;;;;7.40;6.70;;;;;;;;;;5037250;28;20033;-82
2022/11/30 00:46:36;;;;;;;11.20;9.15;;;;;;;;;;5031423;28;20033;-80
2022/11/30 00:49:01;;;;;;;7.82;7.00;;;;;;;;;;5023299;28;20037;-81
2022/11/30 00:51:27;;;;;;;7.35;6.55;;;;;;;;;;5037864;28;20059;-81
2022/11/30 00:53:52;;;;;;;7.38;6.65;;;;;;;;;;5037736;28;20406;-80
2022/11/30 00:56:17;;;;;;;7.45;6.05;;;;;;;;;;5030713;28;20029;-80
2022/11/30 00:58:43;;;;;;;5.57;4.57;;;;;;;;;;5033286;28;20075;-81
2022/11/30 01:01:08;;;;;;;4.00;3.03;;;;;;;;;;5038185;28;20040;-81
2022/11/30 01:03:33;;;;;;;6.20;5.47;;;;;;;;;;5026790;28;20513;-80
2022/11/30 01:06:06;;;;;;;13.77;10.57;;;;;;;;;;5030766;28;20029;-81
2022/11/30 01:08:32;;;;;;;10.50;9.23;;;;;;;;;;5037385;28;20029;-80
2022/11/30 01:11:03;;;;;;;9.10;7.93;;;;;;;;;;5036477;28;20443;-80
2022/11/30 01:13:28;;;;;;;10.73;8.80;;;;;;;;;;5037509;28;20042;-80
2022/11/30 01:15:54;;;;;;;9.95;8.95;;;;;;;;;;5033750;28;20033;-80
2022/11/30 01:18:19;;;;;;;8.25;7.13;;;;;;;;;;5025761;28;20129;-79
2022/11/30 01:20:44;;;;;;;8.23;7.35;;;;;;;;;;5032981;28;20029;-79
2022/11/30 01:23:10;;;;;;;56.42;43.90;;;;;;;;;;5037937;28;20071;-83
2022/11/30 01:25:35;;;;;;;41.28;34.38;;;;;;;;;;5037250;28;20021;-80
2022/11/30 01:28:00;;;;;;;15.13;13.15;;;;;;;;;;5037567;28;20043;-80
2022/11/30 01:30:26;;;;;;;18.35;15.90;;;;;;;;;;5034488;28;23045;-80
2022/11/30 01:32:51;;;;;;;15.95;13.02;;;;;;;;;;5033061;28;20401;-79
2022/11/30 01:35:16;;;;;;;22.55;17.80;;;;;;;;;;5029107;28;20036;-80
2022/11/30 01:37:42;;;;;;;21.73;17.13;;;;;;;;;;5029846;28;20033;-80
2022/11/30 01:40:08;;;;;;;37.85;29.02;;;;;;;;;;5033900;28;20025;-81
2022/11/30 01:42:36;;;;;;;25.60;21.15;;;;;;;;;;5035942;28;20025;-81
2022/11/30 01:45:03;;;;;;;33.20;27.08;;;;;;;;;;5028391;28;20037;-80
2022/11/30 01:47:28;;;;;;;31.90;25.00;;;;;;;;;;5038584;28;20032;-81
2022/11/30 01:49:57;;;;;;;28.83;21.55;;;;;;;;;;5032082;28;20033;-80
2022/11/30 01:52:25;;;;;;;21.20;15.98;;;;;;;;;;5030938;28;20020;-81
2022/11/30 01:54:53;;;;;;;22.15;17.40;;;;;;;;;;5035769;28;20071;-81
2022/11/30 01:57:45;;;;;;;18.98;15.50;;;;;;;;;;5021718;28;20040;-80
2022/11/30 02:00:11;;;;;;;14.32;11.90;;;;;;;;;;5019985;28;20056;-83
2022/11/30 02:02:43;;;;;;;11.02;9.23;;;;;;;;;;5036577;28;20475;-79
2022/11/30 02:05:09;;;;;;;11.55;10.35;;;;;;;;;;5028701;28;20397;-80
2022/11/30 02:07:35;;;;;;;13.05;10.88;;;;;;;;;;5032871;28;20021;-81
2022/11/30 02:10:00;;;;;;;6.82;5.95;;;;;;;;;;5035117;28;20359;-81
2022/11/30 02:12:34;;;;;;;6.60;5.40;;;;;;;;;;5035547;28;20082;-80
2022/11/30 02:15:02;;;;;;;8.18;6.75;;;;;;;;;;5035585;28;20035;-81
2022/11/30 02:17:32;;;;;;;7.22;5.45;;;;;;;;;;5035108;28;20067;-81
2022/11/30 02:20:29;;;;;;;3.95;3.55;;;;;;;;;;5026077;28;20048;-80
2022/11/30 02:23:04;;;;;;;4.63;4.22;;;;;;;;;;4986241;28;20484;-79
2022/11/30 02:25:33;;;;;;;5.20;4.70;;;;;;;;;;4992446;28;20063;-78
2022/11/30 02:28:16;;;;;;;5.53;4.47;;;;;;;;;;4989569;28;20084;-78
2022/11/30 02:30:45;;;;;;;5.57;4.07;;;;;;;;;;4990261;28;20039;-80
2022/11/30 02:33:13;;;;;;;7.00;5.82;;;;;;;;;;4990774;28;20030;-79
2022/11/30 02:35:41;;;;;;;5.32;4.43;;;;;;;;;;4984381;28;20034;-79
2022/11/30 02:38:07;;;;;;;2.10;1.88;;;;;;;;;;4987429;28;20021;-80
2022/11/30 02:40:32;;;;;;;5.32;2.50;;;;;;;;;;4986062;28;20036;-80
2022/11/30 02:42:59;;;;;;;2.40;2.20;;;;;;;;;;4994737;28;20033;-79
2022/11/30 02:45:33;;;;;;;2.67;1.95;;;;;;;;;;4990810;28;20376;-81
2022/11/30 02:48:06;;;;;;;3.30;2.10;;;;;;;;;;4987365;28;20033;-81
2022/11/30 02:50:37;;;;;;;1.20;1.10;;;;;;;;;;4991611;28;20103;-84
2022/11/30 02:53:03;;;;;;;0.80;0.80;;;;;;;;;;4991239;28;20460;-87
2022/11/30 02:55:30;;;;;;;1.00;0.90;;;;;;;;;;4976835;28;20030;-84
2022/11/30 02:57:56;;;;;;;1.00;0.88;;;;;;;;;;5002519;28;20037;-81
2022/11/30 03:00:21;;;;;;;0.80;0.70;;;;;;;;;;5035630;28;20029;-82
2022/11/30 03:02:46;;;;;;;0.70;0.70;;;;;;;;;;5023628;28;20116;-79
2022/11/30 03:05:12;;;;;;;1.58;1.40;;;;;;;;;;5031995;28;20064;-80
2022/11/30 03:07:37;;;;;;;1.23;1.13;;;;;;;;;;5033980;28;20097;-81
2022/11/30 03:10:04;;;;;;;2.25;1.85;;;;;;;;;;5033144;28;20049;-81
2022/11/30 03:12:29;;;;;;;1.65;1.48;;;;;;;;;;5023110;28;20512;-80
2022/11/30 03:14:54;;;;;;;1.67;1.42;;;;;;;;;;5033593;28;20037;-81
2022/11/30 03:17:20;;;;;;;1.58;1.38;;;;;;;;;;5033094;28;20020;-80
2022/11/30 03:19:45;;;;;;;1.52;1.20;;;;;;;;;;5025772;28;20029;-80
2022/11/30 03:22:10;;;;;;;0.85;0.80;;;;;;;;;;5030833;28;20117;-79
2022/11/30 03:24:36;;;;;;;0.70;0.70;;;;;;;;;;5021885;28;20686;-80
2022/11/30 03:27:01;;;;;;;2.30;1.80;;;;;;;;;;5029690;28;20364;-79
2022/11/30 03:29:26;;;;;;;0.90;0.90;;;;;;;;;;5037194;28;20028;-80
2022/11/30 03:31:52;;;;;;;1.83;1.63;;;;;;;;;;5034827;28;20038;-79
2022/11/30 03:34:17;;;;;;;1.33;1.20;;;;;;;;;;5035159;28;21422;-81
2022/11/30 03:36:42;;;;;;;3.00;2.42;;;;;;;;;;5032114;28;20029;-80
2022/11/30 03:39:08;;;;;;;4.97;3.95;;;;;;;;;;5021377;28;20108;-80
2022/11/30 03:41:33;;;;;;;2.72;2.20;;;;;;;;;;5037200;28;20549;-82
2022/11/30 03:43:59;;;;;;;2.90;1.98;;;;;;;;;;5026101;28;20025;-80
2022/11/30 03:46:25;;;;;;;1.63;1.48;;;;;;;;;;5020849;28;20033;-84
2022/11/30 03:48:51;;;;;;;1.95;1.25;;;;;;;;;;5030189;28;20160;-82
2022/11/30 03:51:16;;;;;;;6.70;5.38;;;;;;;;;;5036687;28;20025;-81
2022/11/30 03:53:42;;;;;;;3.55;2.47;;;;;;;;;;5035452;28;20048;-79
2022/11/30 03:56:08;;;;;;;5.78;4.07;;;;;;;;;;5038584;28;20428;-79
2022/11/30 03:58:34;;;;;;;10.25;6.57;;;;;;;;;;5040479;28;20025;-80
2022/11/30 04:00:59;;;;;;;5.63;3.33;;;;;;;;;;5036840;28;20075;-79
2022/11/30 04:03:24;;;;;;;3.28;2.60;;;;;;;;;;5025414;28;20371;-79
2022/11/30 04:05:50;;;;;;;3.08;1.90;;;;;;;;;;5033309;28;20032;-80
2022/11/30 04:08:15;;;;;;;4.43;3.38;;;;;;;;;;5039100;28;20336;-80
2022/11/30 04:10:40;;;;;;;2.55;2.08;;;;;;;;;;5039783;28;20049;-80
2022/11/30 04:13:06;;;;;;;24.20;14.25;;;;;;;;;;5037199;28;20055;-81
2022/11/30 04:15:31;;;;;;;24.02;14.65;;;;;;;;;;5035366;28;20063;-81
2022/11/30 04:17:56;;;;;;;8.63;3.33;;;;;;;;;;5036031;28;20029;-82
2022/11/30 04:20:22;;;;;;;2.50;1.55;;;;;;;;;;5028860;28;20029;-82
2022/11/30 04:22:47;;;;;;;11.60;5.00;;;;;;;;;;5036606;28;20048;-82
2022/11/30 04:25:12;;;;;;;9.30;6.82;;;;;;;;;;5034940;28;20060;-82
2022/11/30 04:27:38;;;;;;;2.65;1.90;;;;;;;;;;5038411;28;20778;-81
2022/11/30 04:30:04;;;;;;;2.75;2.10;;;;;;;;;;5036960;28;20025;-80
2022/11/30 04:32:30;;;;;;;2.78;2.55;;;;;;;;;;5029175;28;20328;-82
2022/11/30 04:34:55;;;;;;;0.90;0.90;;;;;;;;;;5035925;28;20028;-86
2022/11/30 04:37:21;;;;;;;1.42;1.20;;;;;;;;;;5040437;28;20111;-82
2022/11/30 04:39:46;;;;;;;0.90;0.80;;;;;;;;;;5036858;28;20029;-82
2022/11/30 04:42:11;;;;;;;1.10;1.00;;;;;;;;;;5036644;28;20041;-81
2022/11/30 04:44:36;;;;;;;0.70;0.70;;;;;;;;;;5038903;28;20040;-81
2022/11/30 04:47:02;;;;;;;2.55;2.22;;;;;;;;;;5037891;28;20021;-80
2022/11/30 04:49:27;;;;;;;1.92;1.70;;;;;;;;;;5037269;28;20036;-80
2022/11/30 04:51:52;;;;;;;1.70;1.60;;;;;;;;;;5027584;28;21052;-78
2022/11/30 04:54:18;;;;;;;1.63;1.52;;;;;;;;;;5024296;28;20037;-78
2022/11/30 04:56:43;;;;;;;4.18;3.78;;;;;;;;;;5022708;28;20033;-79
2022/11/30 04:59:09;;;;;;;7.72;5.95;;;;;;;;;;5025369;28;20020;-80
2022/11/30 05:01:34;;;;;;;4.95;4.05;;;;;;;;;;5024977;28;20436;-80
2022/11/30 05:03:59;;;;;;;8.13;6.10;;;;;;;;;;5023594;28;20040;-79
2022/11/30 05:06:25;;;;;;;10.02;6.82;;;;;;;;;;5023435;28;20451;-80
2022/11/30 05:08:50;;;;;;;5.20;4.68;;;;;;;;;;5027564;28;20037;-85
2022/11/30 05:11:16;;;;;;;2.97;2.72;;;;;;;;;;5038343;28;20049;-79
2022/11/30 05:13:41;;;;;;;8.65;7.75;;;;;;;;;;5034606;28;20033;-82
2022/11/30 05:16:09;;;;;;;2.33;2.13;;;;;;;;;;5030566;28;20063;-81
2022/11/30 05:18:34;;;;;;;7.65;6.72;;;;;;;;;;5025705;28;20111;-83
2022/11/30 05:21:00;;;;;;;26.75;17.52;;;;;;;;;;5035571;28;20133;-81
2022/11/30 05:23:25;;;;;;;162.30;101.80;;;;;;;;;;5038525;28;20060;-83
2022/11/30 05:25:50;;;;;;;38.15;23.63;;;;;;;;;;5036552;28;20711;-81
2022/11/30 05:28:16;;;;;;;53.53;33.92;;;;;;;;;;5021865;28;20155;-85
2022/11/30 05:30:41;;;;;;;14.82;10.85;;;;;;;;;;5026548;28;20108;-81
2022/11/30 05:33:07;;;;;;;41.28;34.50;;;;;;;;;;5028059;28;20041;-81
2022/11/30 05:35:32;;;;;;;8.27;7.10;;;;;;;;;;5027776;28;20068;-82
2022/11/30 05:37:58;;;;;;;15.60;14.00;;;;;;;;;;5025936;28;20022;-76
2022/11/30 05:40:24;;;;;;;5.70;5.20;;;;;;;;;;5026873;28;20459;-76
2022/11/30 05:42:59;;;;;;;11.23;10.07;;;;;;;;;;5027323;28;20047;-85
2022/11/30 05:45:25;;;;;;;12.50;11.23;;;;;;;;;;5025994;28;20065;-78
2022/11/30 05:47:50;;;;;;;6.75;5.95;;;;;;;;;;5008880;28;20113;-77
2022/11/30 05:50:16;;;;;;;9.27;8.10;;;;;;;;;;5015568;28;20049;-76
2022/11/30 05:52:41;;;;;;;18.75;15.98;;;;;;;;;;5026244;28;20040;-76
2022/11/30 05:55:07;;;;;;;17.58;14.05;;;;;;;;;;5022453;28;20881;-78
2022/11/30 05:57:36;;;;;;;31.88;22.65;;;;;;;;;;5019500;28;20029;-83
2022/11/30 06:00:03;;;;;;;22.02;16.25;;;;;;;;;;5027347;28;20017;-76
2022/11/30 06:02:28;;;;;;;35.38;24.13;;;;;;;;;;5028353;28;20021;-79
2022/11/30 06:04:53;;;;;;;37.10;28.65;;;;;;;;;;5039478;28;20261;-77
2022/11/30 06:07:19;;;;;;;59.28;44.45;;;;;;;;;;5036987;28;20029;-78
2022/11/30 06:09:44;;;;;;;28.00;20.00;;;;;;;;;;5038230;28;20055;-75
2022/11/30 06:12:09;;;;;;;26.08;20.25;;;;;;;;;;5026962;28;20553;-78
2022/11/30 06:14:35;;;;;;;12.38;9.57;;;;;;;;;;5025569;28;20432;-77
2022/11/30 06:17:00;;;;;;;48.92;37.17;;;;;;;;;;5028407;28;20029;-77
2022/11/30 06:19:25;;;;;;;28.48;24.15;;;;;;;;;;5034244;28;20043;-75
2022/11/30 06:21:51;;;;;;;13.05;10.75;;;;;;;;;;5037596;28;20021;-77
2022/11/30 06:24:16;;;;;;;15.90;13.23;;;;;;;;;;5045338;28;20041;-74
2022/11/30 06:26:41;;;;;;;41.13;26.88;;;;;;;;;;5045779;28;20025;-76
2022/11/30 06:29:08;;;;;;;62.20;42.13;;;;;;;;;;5039732;28;20036;-75
2022/11/30 06:31:33;;;;;;;21.13;15.60;;;;;;;;;;5016192;28;20877;-74
2022/11/30 06:33:58;;;;;;;34.88;26.02;;;;;;;;;;5015834;28;20036;-74
2022/11/30 06:36:24;;;;;;;77.20;67.15;;;;;;;;;;5015762;28;20440;-76
2022/11/30 06:38:50;;;;;;;19.50;14.95;;;;;;;;;;5019788;28;20503;-75
2022/11/30 06:41:16;;;;;;;45.08;34.97;;;;;;;;;;5024498;28;20025;-80
2022/11/30 06:43:41;;;;;;;59.50;48.40;;;;;;;;;;5020554;28;20048;-75
2022/11/30 06:46:07;;;;;;;17.70;15.63;;;;;;;;;;5022032;28;20025;-76
2022/11/30 06:48:32;;;;;;;32.20;21.55;;;;;;;;;;5024983;28;20505;-76
2022/11/30 06:50:59;;;;;;;52.88;41.88;;;;;;;;;;5024893;28;20017;-75
2022/11/30 06:53:24;;;;;;;16.35;13.65;;;;;;;;;;5025201;28;20099;-75
2022/11/30 06:55:50;;;;;;;24.60;21.38;;;;;;;;;;5018522;28;20421;-75
2022/11/30 06:58:15;;;;;;;13.75;11.45;;;;;;;;;;5016039;28;20115;-75
2022/11/30 07:00:41;;;;;;;26.90;23.13;;;;;;;;;;5025113;28;20053;-76
2022/11/30 07:03:07;;;;;;;19.08;16.55;;;;;;;;;;5024701;28;20052;-76
2022/11/30 07:05:34;;;;;;;23.23;17.45;;;;;;;;;;5023342;28;20498;-76
2022/11/30 07:07:59;;;;;;;20.63;18.52;;;;;;;;;;5024691;28;20428;-74
2022/11/30 07:10:24;;;;;;;10.20;8.93;;;;;;;;;;5025228;28;20187;-76
2022/11/30 07:12:50;;;;;;;10.45;9.23;;;;;;;;;;5023563;28;20047;-76
2022/11/30 07:15:15;;;;;;;9.07;8.02;;;;;;;;;;5025213;28;20037;-75
2022/11/30 07:17:41;;;;;;;11.25;9.07;;;;;;;;;;5025397;28;20193;-75
2022/11/30 07:20:06;;;;;;;9.20;8.23;;;;;;;;;;5025278;28;20087;-75
2022/11/30 07:22:32;;;;;;;8.63;6.82;;;;;;;;;;5025001;28;20030;-75
2022/11/30 07:27:41;;;;;;;9.98;8.43;;;;;;;;;;5029081;28;20115;-75
2022/11/30 07:30:07;;;;;;;7.28;6.07;;;;;;;;;;5028572;28;20104;-75
2022/11/30 07:32:32;;;;;;;7.47;6.40;;;;;;;;;;5028205;28;20071;-75
2022/11/30 07:34:57;;;;;;;13.25;11.85;;;;;;;;;;5028480;28;20044;-75
2022/11/30 07:37:23;;;;;;;7.57;6.85;;;;;;;;;;5029040;28;20029;-75
2022/11/30 07:39:48;;;;;;;17.42;15.50;;;;;;;;;;5029055;28;20075;-75
2022/11/30 07:42:13;;;;;;;13.05;9.52;;;;;;;;;;5028692;28;20360;-75
2022/11/30 07:44:40;;;;;;;17.95;14.98;;;;;;;;;;5028796;28;20108;-76
2022/11/30 07:47:05;;;;;;;11.68;10.48;;;;;;;;;;5028492;28;20022;-75
2022/11/30 07:49:30;;;;;;;7.82;5.95;;;;;;;;;;5028663;28;20029;-75
2022/11/30 07:51:56;;;;;;;8.63;7.78;;;;;;;;;;5028641;28;20032;-75
2022/11/30 07:54:21;;;;;;;7.80;6.80;;;;;;;;;;5029355;28;20033;-75
2022/11/30 07:56:47;;;;;;;7.20;6.50;;;;;;;;;;5028783;28;20097;-76
2022/11/30 07:59:12;;;;;;;5.82;5.20;;;;;;;;;;5028516;28;20048;-75
2022/11/30 08:01:37;;;;;;;8.60;7.80;;;;;;;;;;5028740;28;20066;-75
2022/11/30 08:04:03;;;;;;;5.32;4.82;;;;;;;;;;5028042;28;20108;-75
2022/11/30 08:06:29;;;;;;;6.60;6.00;;;;;;;;;;5027888;28;20033;-76
2022/11/30 08:08:59;;;;;;;32.15;27.50;;;;;;;;;;5028208;28;20026;-75
2022/11/30 08:11:26;;;;;;;4.78;4.28;;;;;;;;;;5028913;28;20056;-75
2022/11/30 08:13:52;;;;;;;3.80;3.50;;;;;;;;;;5028209;28;20104;-76
2022/11/30 08:16:19;;;;;;;3.90;3.50;;;;;;;;;;5027944;28;20136;-75
2022/11/30 08:18:46;;;;;;;3.00;2.70;;;;;;;;;;5027568;28;20028;-74
2022/11/30 08:21:12;;;;;;;2.80;2.55;;;;;;;;;;5027759;28;20711;-75
2022/11/30 08:23:39;;;;;;;2.92;2.72;;;;;;;;;;5027952;28;20436;-75
2022/11/30 08:26:06;;;;;;;2.88;2.60;;;;;;;;;;5027373;28;20057;-75
2022/11/30 08:28:34;;;;;;;4.07;3.67;;;;;;;;;;5027549;28;20037;-75
2022/11/30 08:31:02;;;;;;;1.88;1.77;;;;;;;;;;5027574;28;20029;-75
2022/11/30 08:33:27;;;;;;;2.95;2.65;;;;;;;;;;5027322;28;20472;-75
2022/11/30 08:35:52;;;;;;;4.00;3.20;;;;;;;;;;5026448;28;20060;-75
2022/11/30 08:38:18;;;;;;;4.40;4.00;;;;;;;;;;5028006;28;20429;-75
2022/11/30 08:40:43;;;;;;;3.08;2.80;;;;;;;;;;5027374;28;20043;-75
2022/11/30 08:43:08;;;;;;;13.20;11.80;;;;;;;;;;5027211;28;20026;-76
2022/11/30 08:45:34;;;;;;;5.93;5.25;;;;;;;;;;5027271;28;20067;-75
2022/11/30 08:47:59;;;;;;;2.67;2.47;;;;;;;;;;5027938;28;20021;-75
2022/11/30 08:50:25;;;;;;;2.60;2.40;;;;;;;;;;5027815;28;20039;-75
2022/11/30 08:52:52;;;;;;;4.60;4.20;;;;;;;;;;5027570;28;20036;-75
2022/11/30 08:55:17;;;;;;;7.63;6.93;;;;;;;;;;5027333;28;20100;-75
2022/11/30 08:57:42;;;;;;;2.92;2.65;;;;;;;;;;5027422;28;20357;-76
2022/11/30 09:00:08;;;;;;;3.97;3.63;;;;;;;;;;5027654;28;20430;-76
2022/11/30 09:02:33;;;;;;;15.90;12.25;;;;;;;;;;5026674;28;20064;-76
2022/11/30 09:04:59;;;;;;;7.60;5.88;;;;;;;;;;5027237;28;20033;-76
2022/11/30 09:07:24;;;;;;;21.58;16.30;;;;;;;;;;5026814;28;20083;-75
2022/11/30 09:09:50;;;;;;;4.78;4.32;;;;;;;;;;5027100;28;20041;-75
2022/11/30 09:12:15;;;;;;;5.55;5.05;;;;;;;;;;5027434;28;20052;-76
2022/11/30 09:14:41;;;;;;;3.90;3.28;;;;;;;;;;5027587;28;20036;-75
2022/11/30 09:17:06;;;;;;;6.07;5.47;;;;;;;;;;5026766;28;20056;-75
2022/11/30 09:19:32;;;;;;;5.60;5.10;;;;;;;;;;5027129;28;20400;-75
2022/11/30 09:21:57;;;;;;;4.15;3.85;;;;;;;;;;5026222;28;20086;-75
2022/11/30 09:24:23;;;;;;;4.03;3.72;;;;;;;;;;5026457;28;20182;-75
2022/11/30 09:26:48;;;;;;;4.40;4.00;;;;;;;;;;5026575;28;20501;-76
2022/11/30 09:29:13;;;;;;;5.65;5.15;;;;;;;;;;5026475;28;20053;-76
2022/11/30 09:31:39;;;;;;;5.00;4.50;;;;;;;;;;5026691;28;20025;-76
2022/11/30 09:34:04;;;;;;;7.65;6.95;;;;;;;;;;5026479;28;20033;-75
2022/11/30 09:36:31;;;;;;;3.60;3.30;;;;;;;;;;5026049;28;20060;-75
2022/11/30 09:38:57;;;;;;;3.72;3.42;;;;;;;;;;5027063;28;20075;-75
2022/11/30 09:41:28;;;;;;;2.20;2.10;;;;;;;;;;5026883;28;20521;-75
2022/11/30 09:43:53;;;;;;;2.38;2.17;;;;;;;;;;5026365;28;20091;-76
2022/11/30 09:46:22;;;;;;;3.53;3.22;;;;;;;;;;5026332;28;20104;-75
2022/11/30 09:48:53;;;;;;;2.17;2.08;;;;;;;;;;5026109;28;20026;-75
2022/11/30 09:51:38;;;;;;;1.63;1.52;;;;;;;;;;5025951;28;20022;-75
2022/11/30 09:54:08;;;;;;;2.72;2.47;;;;;;;;;;5026445;28;20111;-75
2022/11/30 09:56:36;;;;;;;6.38;5.72;;;;;;;;;;5026362;28;20033;-75
2022/11/30 09:59:01;;;;;;;8.05;7.30;;;;;;;;;;5026157;28;20445;-76
2022/11/30 10:01:27;;;;;;;4.15;3.75;;;;;;;;;;5027216;28;20034;-75
2022/11/30 10:03:52;;;;;;;11.18;9.43;;;;;;;;;;5026337;28;20037;-76
2022/11/30 10:06:32;;;;;;;10.18;8.25;;;;;;;;;;5026033;28;20022;-75
2022/11/30 10:08:58;;;;;;;6.32;5.72;;;;;;;;;;5026365;28;20030;-75
2022/11/30 10:11:31;;;;;;;5.18;4.70;;;;;;;;;;5026042;28;20060;-75
2022/11/30 10:14:15;;;;;;;4.18;3.88;;;;;;;;;;5026383;28;20026;-76
2022/11/30 10:16:59;;;;;;;5.15;4.65;;;;;;;;;;5026376;28;20199;-74
2022/11/30 10:19:24;;;;;;;8.93;6.30;;;;;;;;;;5025778;28;20521;-75
2022/11/30 10:21:56;;;;;;;13.32;10.18;;;;;;;;;;5026089;28;20014;-75
2022/11/30 10:24:33;;;;;;;24.95;19.90;;;;;;;;;;5026166;28;20437;-75
2022/11/30 10:27:01;;;;;;;4.57;3.78;;;;;;;;;;5024881;28;20033;-75
2022/11/30 10:29:35;;;;;;;7.38;6.28;;;;;;;;;;5025162;28;20111;-75
2022/11/30 10:32:09;;;;;;;10.30;8.98;;;;;;;;;;5025549;28;20132;-75
2022/11/30 10:34:35;;;;;;;9.93;8.55;;;;;;;;;;5026182;28;20037;-75
2022/11/30 10:37:03;;;;;;;8.80;7.65;;;;;;;;;;5025232;28;20029;-75
2022/11/30 10:39:32;;;;;;;6.57;5.75;;;;;;;;;;5025482;28;20104;-75
2022/11/30 10:42:07;;;;;;;10.77;9.02;;;;;;;;;;5025745;28;20344;-74
2022/11/30 10:44:39;;;;;;;15.13;12.32;;;;;;;;;;5025493;28;20025;-74
2022/11/30 10:47:10;;;;;;;5.75;4.75;;;;;;;;;;5025076;28;20022;-75
2022/11/30 10:49:37;;;;;;;6.78;6.00;;;;;;;;;;5024947;28;20025;-75
2022/11/30 10:52:04;;;;;;;5.03;4.55;;;;;;;;;;5025175;28;20022;-75
2022/11/30 10:54:30;;;;;;;7.38;6.28;;;;;;;;;;5025442;28;20064;-74
2022/11/30 10:56:57;;;;;;;6.93;6.05;;;;;;;;;;5025303;28;20448;-75
2022/11/30 10:59:26;;;;;;;5.80;5.20;;;;;;;;;;5023513;28;20083;-75
2022/11/30 11:01:52;;;;;;;4.13;3.72;;;;;;;;;;5025279;28;20457;-74
2022/11/30 11:04:19;;;;;;;3.13;2.83;;;;;;;;;;5025021;28;20079;-75
2022/11/30 11:06:45;;;;;;;9.18;6.70;;;;;;;;;;5024545;28;20598;-76
2022/11/30 11:09:30;;;;;;;4.07;3.65;;;;;;;;;;5024829;28;20029;-75
2022/11/30 11:11:57;;;;;;;2.38;2.17;;;;;;;;;;5025128;28;20034;-76
2022/11/30 11:14:23;;;;;;;5.20;4.30;;;;;;;;;;5024409;28;20124;-76
2022/11/30 11:16:58;;;;;;;3.63;3.33;;;;;;;;;;5025436;28;20100;-76
2022/11/30 11:19:36;;;;;;;6.57;4.95;;;;;;;;;;5025171;28;20382;-75
2022/11/30 11:22:03;;;;;;;8.52;7.05;;;;;;;;;;5025209;28;20056;-76
2022/11/30 11:24:28;;;;;;;6.82;5.93;;;;;;;;;;5025254;28;20029;-74
2022/11/30 11:26:54;;;;;;;4.85;4.43;;;;;;;;;;5024949;28;20025;-75
2022/11/30 11:29:30;;;;;;;5.00;4.50;;;;;;;;;;5025210;28;20029;-75
2022/11/30 11:32:29;;;;;;;5.80;5.20;;;;;;;;;;5025103;28;20025;-75
2022/11/30 11:34:54;;;;;;;4.78;4.38;;;;;;;;;;5022820;28;20048;-76
2022/11/30 11:37:20;;;;;;;5.45;4.93;;;;;;;;;;5022776;28;20029;-76
2022/11/30 11:39:57;;;;;;;5.72;5.18;;;;;;;;;;5023207;28;20033;-75
2022/11/30 11:42:23;;;;;;;8.45;7.28;;;;;;;;;;5022430;28;20462;-75
2022/11/30 11:44:52;;;;;;;5.68;5.00;;;;;;;;;;5022477;28;20071;-76
2022/11/30 11:47:23;;;;;;;14.07;10.37;;;;;;;;;;5022031;28;20505;-74
2022/11/30 11:49:49;;;;;;;13.05;11.10;;;;;;;;;;5021881;28;20034;-75
2022/11/30 11:52:18;;;;;;;8.15;7.38;;;;;;;;;;5022200;28;20037;-75
2022/11/30 11:54:52;;;;;;;7.68;5.53;;;;;;;;;;5022601;28;20025;-75
2022/11/30 11:57:21;;;;;;;10.35;7.20;;;;;;;;;;5022424;28;20029;-76
2022/11/30 11:59:49;;;;;;;19.83;14.00;;;;;;;;;;5021706;28;20025;-75
2022/11/30 12:02:17;;;;;;;19.67;13.02;;;;;;;;;;5022466;28;20463;-75
2022/11/30 12:04:49;;;;;;;26.35;16.80;;;;;;;;;;5021968;28;20045;-75
2022/11/30 12:07:20;;;;;;;92.47;51.33;;;;;;;;;;5022460;28;20388;-75
2022/11/30 12:09:54;;;;;;;69.55;39.65;;;;;;;;;;5023465;28;20053;-74
2022/11/30 12:12:19;;;;;;;73.78;39.75;;;;;;;;;;5028379;28;20052;-75
2022/11/30 12:14:45;;;;;;;50.83;28.55;;;;;;;;;;5028295;28;20091;-75
2022/11/30 12:17:16;;;;;;;101.10;52.40;;;;;;;;;;5027864;28;20025;-75
2022/11/30 12:19:54;;;;;;;99.13;50.83;;;;;;;;;;5027802;28;20095;-76
2022/11/30 12:22:38;;;;;;;33.30;19.92;;;;;;;;;;5027729;28;20021;-75
2022/11/30 12:25:03;;;;;;;25.02;15.55;;;;;;;;;;5027328;28;20460;-76
2022/11/30 12:27:47;;;;;;;18.08;10.80;;;;;;;;;;5027577;28;20315;-74
2022/11/30 12:30:24;;;;;;;12.73;8.02;;;;;;;;;;5027470;28;20023;-74
2022/11/30 12:33:09;;;;;;;12.25;9.15;;;;;;;;;;5027017;28;20412;-75
2022/11/30 12:35:52;;;;;;;7.18;5.72;;;;;;;;;;5027236;28;20460;-75
2022/11/30 12:38:22;;;;;;;14.20;8.98;;;;;;;;;;5026889;28;20083;-74
2022/11/30 12:40:51;;;;;;;34.42;19.48;;;;;;;;;;5027626;28;20067;-74
2022/11/30 12:43:22;;;;;;;40.25;21.65;;;;;;;;;;5027870;28;20040;-75
2022/11/30 12:45:50;;;;;;;20.52;14.25;;;;;;;;;;5027466;28;20037;-74
2022/11/30 12:48:27;;;;;;;23.88;18.80;;;;;;;;;;5028066;28;20010;-75
2022/11/30 12:50:55;;;;;;;11.68;8.43;;;;;;;;;;5027213;28;20026;-75
2022/11/30 12:53:24;;;;;;;11.20;9.30;;;;;;;;;;5027576;28;20120;-74
2022/11/30 12:55:52;;;;;;;13.48;11.75;;;;;;;;;;5027785;28;20075;-75
2022/11/30 12:58:24;;;;;;;13.50;11.80;;;;;;;;;;5027704;28;20033;-75
2022/11/30 13:00:57;;;;;;;12.63;11.32;;;;;;;;;;5027707;28;20332;-74
2022/11/30 13:03:23;;;;;;;7.70;7.00;;;;;;;;;;5027146;28;20030;-74
2022/11/30 13:05:56;;;;;;;11.07;8.23;;;;;;;;;;5027468;28;20044;-77
2022/11/30 13:08:42;;;;;;;6.63;5.93;;;;;;;;;;5023365;28;20022;-76
2022/11/30 13:11:12;;;;;;;9.52;7.32;;;;;;;;;;5006859;28;20132;-78
2022/11/30 13:13:42;;;;;;;23.90;14.90;;;;;;;;;;4997488;28;20021;-77
2022/11/30 13:16:08;;;;;;;9.68;7.57;;;;;;;;;;4998994;28;20029;-75
2022/11/30 13:18:33;;;;;;;10.70;8.18;;;;;;;;;;4998469;28;20025;-76
2022/11/30 13:21:15;;;;;;;10.80;8.68;;;;;;;;;;4996837;28;20108;-77
2022/11/30 13:23:46;;;;;;;8.93;7.55;;;;;;;;;;4998260;28;20448;-77
2022/11/30 13:26:11;;;;;;;11.88;9.02;;;;;;;;;;4997518;28;20400;-77
2022/11/30 13:28:40;;;;;;;11.55;8.38;;;;;;;;;;5007209;28;20033;-76
2022/11/30 13:31:24;;;;;;;8.15;6.82;;;;;;;;;;5017953;28;20033;-77
2022/11/30 13:33:52;;;;;;;4.25;3.85;;;;;;;;;;5018355;28;20498;-76
2022/11/30 13:36:20;;;;;;;12.88;10.52;;;;;;;;;;5016667;28;20093;-76
2022/11/30 13:38:46;;;;;;;6.13;5.00;;;;;;;;;;5015263;28;20111;-75
2022/11/30 13:41:18;;;;;;;3.53;3.22;;;;;;;;;;5016540;28;20510;-75
2022/11/30 13:43:45;;;;;;;3.63;3.28;;;;;;;;;;5016305;28;20397;-76
2022/11/30 13:46:18;;;;;;;7.28;5.10;;;;;;;;;;5016450;28;20022;-76
2022/11/30 13:48:44;;;;;;;4.35;3.72;;;;;;;;;;5017292;28;20026;-75
2022/11/30 13:51:10;;;;;;;4.20;3.80;;;;;;;;;;5017513;28;20044;-75
2022/11/30 13:53:37;;;;;;;5.30;2.90;;;;;;;;;;5017440;28;20325;-75
2022/11/30 13:56:06;;;;;;;2.17;2.08;;;;;;;;;;5015917;28;20021;-76
2022/11/30 13:58:32;;;;;;;2.22;2.05;;;;;;;;;;5016436;28;20096;-76
2022/11/30 14:01:01;;;;;;;3.40;3.10;;;;;;;;;;5015506;28;20032;-77
2022/11/30 14:03:30;;;;;;;2.90;2.25;;;;;;;;;;5014092;28;20383;-76
2022/11/30 14:05:56;;;;;;;2.60;1.65;;;;;;;;;;5015985;28;20111;-76
2022/11/30 14:08:21;;;;;;;1.30;1.20;;;;;;;;;;5016791;28;20032;-75
2022/11/30 14:10:48;;;;;;;5.15;4.00;;;;;;;;;;5018469;28;20352;-75
2022/11/30 14:13:19;;;;;;;3.45;2.47;;;;;;;;;;5016370;28;20045;-75
2022/11/30 14:15:47;;;;;;;3.38;2.47;;;;;;;;;;5015019;28;20029;-76
2022/11/30 14:18:12;;;;;;;2.15;1.95;;;;;;;;;;5008376;28;20022;-75
2022/11/30 14:20:41;;;;;;;3.03;2.13;;;;;;;;;;5009554;28;20025;-77
2022/11/30 14:23:27;;;;;;;1.37;1.27;;;;;;;;;;5015173;28;20376;-73
2022/11/30 14:25:58;;;;;;;1.92;1.70;;;;;;;;;;4993525;28;20399;-78
2022/11/30 14:28:31;;;;;;;2.55;2.25;;;;;;;;;;5024411;28;20352;-79
2022/11/30 14:30:57;;;;;;;2.80;2.60;;;;;;;;;;5024879;28;20029;-77
2022/11/30 14:33:26;;;;;;;2.38;2.17;;;;;;;;;;5025425;28;20275;-78
2022/11/30 14:35:55;;;;;;;4.97;4.40;;;;;;;;;;5017378;28;20029;-80
2022/11/30 14:38:24;;;;;;;14.30;12.85;;;;;;;;;;5018016;28;20083;-82